sensor_id;sensor_type;location;lat;lon;timestamp;temperature;humidity
1021;DHT22;499;42.648;23.270;2023-04-24T00:01:34;9.90;34.00
1021;DHT22;499;42.648;23.270;2023-04-24T00:04:03;9.80;34.90
1021;DHT22;499;42.648;23.270;2023-04-24T00:06:30;9.90;34.80
1021;DHT22;499;42.648;23.270;2023-04-24T00:08:59;9.80;34.20
1021;DHT22;499;42.648;23.270;2023-04-24T00:11:27;9.80;36.00
1021;DHT22;499;42.648;23.270;2023-04-24T00:13:54;9.90;35.00
1021;DHT22;499;42.648;23.270;2023-04-24T00:16:21;9.90;34.80
1021;DHT22;499;42.648;23.270;2023-04-24T00:18:48;9.70;36.40
1021;DHT22;499;42.648;23.270;2023-04-24T00:21:16;9.60;37.60
1021;DHT22;499;42.648;23.270;2023-04-24T00:23:43;9.50;39.30
1021;DHT22;499;42.648;23.270;2023-04-24T00:26:10;9.30;40.80
1021;DHT22;499;42.648;23.270;2023-04-24T00:28:37;9.30;42.50
1021;DHT22;499;42.648;23.270;2023-04-24T00:31:04;9.20;43.00
1021;DHT22;499;42.648;23.270;2023-04-24T00:33:31;9.20;43.90
1021;DHT22;499;42.648;23.270;2023-04-24T00:35:58;9.40;43.50
1021;DHT22;499;42.648;23.270;2023-04-24T00:38:27;9.50;41.70
1021;DHT22;499;42.648;23.270;2023-04-24T00:40:54;9.30;43.20
1021;DHT22;499;42.648;23.270;2023-04-24T00:43:21;9.30;43.10
1021;DHT22;499;42.648;23.270;2023-04-24T00:45:48;9.30;44.60
1021;DHT22;499;42.648;23.270;2023-04-24T00:48:16;9.20;43.40
1021;DHT22;499;42.648;23.270;2023-04-24T00:50:43;9.20;44.30
1021;DHT22;499;42.648;23.270;2023-04-24T00:53:10;9.20;44.20
1021;DHT22;499;42.648;23.270;2023-04-24T00:55:39;9.20;42.30
1021;DHT22;499;42.648;23.270;2023-04-24T00:58:06;9.30;42.20
1021;DHT22;499;42.648;23.270;2023-04-24T01:00:33;9.30;42.20
1021;DHT22;499;42.648;23.270;2023-04-24T01:03:01;9.50;41.80
1021;DHT22;499;42.648;23.270;2023-04-24T01:05:32;9.80;38.80
1021;DHT22;499;42.648;23.270;2023-04-24T01:07:59;9.90;37.40
1021;DHT22;499;42.648;23.270;2023-04-24T01:10:27;9.80;41.50
1021;DHT22;499;42.648;23.270;2023-04-24T01:12:58;9.90;42.30
1021;DHT22;499;42.648;23.270;2023-04-24T01:15:25;9.80;49.00
1021;DHT22;499;42.648;23.270;2023-04-24T01:17:52;10.00;49.70
1021;DHT22;499;42.648;23.270;2023-04-24T01:20:19;9.90;57.60
1021;DHT22;499;42.648;23.270;2023-04-24T01:22:48;9.90;63.00
1021;DHT22;499;42.648;23.270;2023-04-24T01:25:15;9.80;59.40
1021;DHT22;499;42.648;23.270;2023-04-24T01:27:42;9.80;64.30
1021;DHT22;499;42.648;23.270;2023-04-24T01:30:10;9.70;65.00
1021;DHT22;499;42.648;23.270;2023-04-24T01:32:38;9.60;74.60
1021;DHT22;499;42.648;23.270;2023-04-24T01:35:07;9.50;74.60
1021;DHT22;499;42.648;23.270;2023-04-24T01:37:34;9.20;73.40
1021;DHT22;499;42.648;23.270;2023-04-24T01:40:05;9.00;76.10
1021;DHT22;499;42.648;23.270;2023-04-24T01:42:32;9.00;77.60
1021;DHT22;499;42.648;23.270;2023-04-24T01:45:00;8.90;78.80
1021;DHT22;499;42.648;23.270;2023-04-24T01:47:27;8.80;83.60
1021;DHT22;499;42.648;23.270;2023-04-24T01:49:55;8.70;86.20
1021;DHT22;499;42.648;23.270;2023-04-24T01:52:22;8.60;89.60
1021;DHT22;499;42.648;23.270;2023-04-24T01:54:49;8.50;90.30
1021;DHT22;499;42.648;23.270;2023-04-24T01:57:17;8.40;90.50
1021;DHT22;499;42.648;23.270;2023-04-24T01:59:44;8.30;90.40
1021;DHT22;499;42.648;23.270;2023-04-24T02:02:11;8.10;92.40
1021;DHT22;499;42.648;23.270;2023-04-24T02:04:39;8.00;94.30
1021;DHT22;499;42.648;23.270;2023-04-24T02:07:06;8.00;95.60
1021;DHT22;499;42.648;23.270;2023-04-24T02:09:33;7.90;96.90
1021;DHT22;499;42.648;23.270;2023-04-24T02:12:00;7.90;96.70
1021;DHT22;499;42.648;23.270;2023-04-24T02:14:29;7.80;96.80
1021;DHT22;499;42.648;23.270;2023-04-24T02:16:55;7.80;97.80
1021;DHT22;499;42.648;23.270;2023-04-24T02:19:23;7.70;98.70
1021;DHT22;499;42.648;23.270;2023-04-24T02:21:50;7.60;99.40
1021;DHT22;499;42.648;23.270;2023-04-24T02:24:17;7.60;99.90
1021;DHT22;499;42.648;23.270;2023-04-24T02:26:44;7.60;99.90
1021;DHT22;499;42.648;23.270;2023-04-24T02:29:11;7.70;99.90
1021;DHT22;499;42.648;23.270;2023-04-24T02:31:39;7.60;99.20
1021;DHT22;499;42.648;23.270;2023-04-24T02:34:06;7.70;99.50
1021;DHT22;499;42.648;23.270;2023-04-24T02:36:33;7.90;97.60
1021;DHT22;499;42.648;23.270;2023-04-24T02:39:00;7.70;95.40
1021;DHT22;499;42.648;23.270;2023-04-24T02:41:28;7.70;96.00
1021;DHT22;499;42.648;23.270;2023-04-24T02:43:57;7.60;97.10
1021;DHT22;499;42.648;23.270;2023-04-24T02:46:24;7.60;98.10
1021;DHT22;499;42.648;23.270;2023-04-24T02:48:52;7.60;98.70
1021;DHT22;499;42.648;23.270;2023-04-24T02:51:19;7.60;99.00
1021;DHT22;499;42.648;23.270;2023-04-24T02:53:46;7.60;99.00
1021;DHT22;499;42.648;23.270;2023-04-24T02:56:13;7.50;98.90
1021;DHT22;499;42.648;23.270;2023-04-24T02:58:40;7.50;99.00
1021;DHT22;499;42.648;23.270;2023-04-24T03:01:08;7.60;99.30
1021;DHT22;499;42.648;23.270;2023-04-24T03:03:35;7.40;98.50
1021;DHT22;499;42.648;23.270;2023-04-24T03:06:04;7.40;98.70
1021;DHT22;499;42.648;23.270;2023-04-24T03:08:31;7.40;98.80
1021;DHT22;499;42.648;23.270;2023-04-24T03:10:58;7.50;98.90
1021;DHT22;499;42.648;23.270;2023-04-24T03:13:25;7.40;98.00
1021;DHT22;499;42.648;23.270;2023-04-24T03:15:52;7.40;98.50
1021;DHT22;499;42.648;23.270;2023-04-24T03:18:19;7.40;99.20
1021;DHT22;499;42.648;23.270;2023-04-24T03:20:46;7.40;99.10
1021;DHT22;499;42.648;23.270;2023-04-24T03:23:15;7.30;98.90
1021;DHT22;499;42.648;23.270;2023-04-24T03:25:42;7.30;98.60
1021;DHT22;499;42.648;23.270;2023-04-24T03:28:09;7.40;99.00
1021;DHT22;499;42.648;23.270;2023-04-24T03:30:36;7.40;99.00
1021;DHT22;499;42.648;23.270;2023-04-24T03:33:03;7.40;98.60
1021;DHT22;499;42.648;23.270;2023-04-24T03:35:30;7.40;98.70
1021;DHT22;499;42.648;23.270;2023-04-24T03:37:57;7.40;99.30
1021;DHT22;499;42.648;23.270;2023-04-24T03:40:26;7.60;99.20
1021;DHT22;499;42.648;23.270;2023-04-24T03:42:55;7.60;98.90
1021;DHT22;499;42.648;23.270;2023-04-24T03:45:22;7.80;97.40
1021;DHT22;499;42.648;23.270;2023-04-24T03:47:49;7.70;95.30
1021;DHT22;499;42.648;23.270;2023-04-24T03:50:16;7.90;94.80
1021;DHT22;499;42.648;23.270;2023-04-24T03:52:43;7.90;94.40
1021;DHT22;499;42.648;23.270;2023-04-24T03:55:10;8.00;94.30
1021;DHT22;499;42.648;23.270;2023-04-24T03:57:40;8.20;93.80
1021;DHT22;499;42.648;23.270;2023-04-24T04:00:08;8.30;91.60
1021;DHT22;499;42.648;23.270;2023-04-24T04:02:35;8.30;88.60
1021;DHT22;499;42.648;23.270;2023-04-24T04:05:03;8.30;85.50
1021;DHT22;499;42.648;23.270;2023-04-24T04:07:30;8.50;86.60
1021;DHT22;499;42.648;23.270;2023-04-24T04:09:57;8.70;80.90
1021;DHT22;499;42.648;23.270;2023-04-24T04:12:24;8.70;74.70
1021;DHT22;499;42.648;23.270;2023-04-24T04:14:53;8.90;73.10
1021;DHT22;499;42.648;23.270;2023-04-24T04:17:20;9.10;68.50
1021;DHT22;499;42.648;23.270;2023-04-24T04:19:47;9.20;63.70
1021;DHT22;499;42.648;23.270;2023-04-24T04:22:14;9.20;59.00
1021;DHT22;499;42.648;23.270;2023-04-24T04:24:41;9.30;55.20
1021;DHT22;499;42.648;23.270;2023-04-24T04:27:08;9.50;54.70
1021;DHT22;499;42.648;23.270;2023-04-24T04:29:36;9.70;52.60
1021;DHT22;499;42.648;23.270;2023-04-24T04:32:05;9.90;50.50
1021;DHT22;499;42.648;23.270;2023-04-24T04:34:32;9.90;49.40
1021;DHT22;499;42.648;23.270;2023-04-24T04:36:59;10.00;47.10
1021;DHT22;499;42.648;23.270;2023-04-24T04:39:27;10.00;45.10
1021;DHT22;499;42.648;23.270;2023-04-24T04:41:55;10.00;43.50
1021;DHT22;499;42.648;23.270;2023-04-24T04:44:22;10.10;42.90
1021;DHT22;499;42.648;23.270;2023-04-24T04:46:50;10.10;37.40
1021;DHT22;499;42.648;23.270;2023-04-24T04:49:20;9.90;39.50
1021;DHT22;499;42.648;23.270;2023-04-24T04:51:47;9.90;40.10
1021;DHT22;499;42.648;23.270;2023-04-24T04:54:14;9.80;41.20
1021;DHT22;499;42.648;23.270;2023-04-24T04:56:41;9.80;41.00
1021;DHT22;499;42.648;23.270;2023-04-24T04:59:08;9.70;41.10
1021;DHT22;499;42.648;23.270;2023-04-24T05:01:36;9.70;41.10
1021;DHT22;499;42.648;23.270;2023-04-24T05:04:03;9.80;38.70
1021;DHT22;499;42.648;23.270;2023-04-24T05:06:31;9.80;38.80
1021;DHT22;499;42.648;23.270;2023-04-24T05:08:59;9.80;41.20
1021;DHT22;499;42.648;23.270;2023-04-24T05:11:26;10.00;40.50
1021;DHT22;499;42.648;23.270;2023-04-24T05:13:52;10.10;36.50
1021;DHT22;499;42.648;23.270;2023-04-24T05:16:20;10.20;35.90
1021;DHT22;499;42.648;23.270;2023-04-24T05:18:47;10.20;35.90
1021;DHT22;499;42.648;23.270;2023-04-24T05:21:14;10.20;35.90
1021;DHT22;499;42.648;23.270;2023-04-24T05:23:42;10.20;36.70
1021;DHT22;499;42.648;23.270;2023-04-24T05:26:09;10.30;37.60
1021;DHT22;499;42.648;23.270;2023-04-24T05:28:36;10.40;38.40
1021;DHT22;499;42.648;23.270;2023-04-24T05:31:03;10.60;36.30
1021;DHT22;499;42.648;23.270;2023-04-24T05:33:30;10.70;36.30
1021;DHT22;499;42.648;23.270;2023-04-24T05:35:57;10.80;36.50
1021;DHT22;499;42.648;23.270;2023-04-24T05:38:24;11.00;33.90
1021;DHT22;499;42.648;23.270;2023-04-24T05:40:52;10.90;31.70
1021;DHT22;499;42.648;23.270;2023-04-24T05:43:20;10.90;32.30
1021;DHT22;499;42.648;23.270;2023-04-24T05:45:47;10.90;33.70
1021;DHT22;499;42.648;23.270;2023-04-24T05:48:14;10.90;31.80
1021;DHT22;499;42.648;23.270;2023-04-24T05:50:41;10.90;31.70
1021;DHT22;499;42.648;23.270;2023-04-24T05:53:08;10.70;32.40
1021;DHT22;499;42.648;23.270;2023-04-24T05:55:36;10.60;33.80
1021;DHT22;499;42.648;23.270;2023-04-24T05:58:04;10.50;35.30
1021;DHT22;499;42.648;23.270;2023-04-24T06:00:31;10.60;35.80
1021;DHT22;499;42.648;23.270;2023-04-24T06:03:00;10.80;34.50
1021;DHT22;499;42.648;23.270;2023-04-24T06:05:29;10.80;34.50
1021;DHT22;499;42.648;23.270;2023-04-24T06:07:56;11.00;32.70
1021;DHT22;499;42.648;23.270;2023-04-24T06:10:23;11.00;33.40
1021;DHT22;499;42.648;23.270;2023-04-24T06:12:51;11.10;33.70
1021;DHT22;499;42.648;23.270;2023-04-24T06:15:19;11.20;33.30
1021;DHT22;499;42.648;23.270;2023-04-24T06:17:46;11.40;31.00
1021;DHT22;499;42.648;23.270;2023-04-24T06:20:14;11.30;30.40
1021;DHT22;499;42.648;23.270;2023-04-24T06:22:41;11.30;30.40
1021;DHT22;499;42.648;23.270;2023-04-24T06:25:08;11.40;31.10
1021;DHT22;499;42.648;23.270;2023-04-24T06:27:36;11.60;32.30
1021;DHT22;499;42.648;23.270;2023-04-24T06:30:03;11.70;29.90
1021;DHT22;499;42.648;23.270;2023-04-24T06:32:32;12.00;30.70
1021;DHT22;499;42.648;23.270;2023-04-24T06:34:59;12.10;28.20
1021;DHT22;499;42.648;23.270;2023-04-24T06:37:27;12.30;28.60
1021;DHT22;499;42.648;23.270;2023-04-24T06:39:54;12.40;27.40
1021;DHT22;499;42.648;23.270;2023-04-24T06:42:22;12.60;26.60
1021;DHT22;499;42.648;23.270;2023-04-24T06:44:50;12.50;25.90
1021;DHT22;499;42.648;23.270;2023-04-24T06:47:17;12.30;26.00
1021;DHT22;499;42.648;23.270;2023-04-24T06:49:46;12.20;27.10
1021;DHT22;499;42.648;23.270;2023-04-24T06:52:13;12.30;27.80
1021;DHT22;499;42.648;23.270;2023-04-24T06:54:41;12.40;27.60
1021;DHT22;499;42.648;23.270;2023-04-24T06:57:08;12.40;27.00
1021;DHT22;499;42.648;23.270;2023-04-24T06:59:36;12.60;25.00
1021;DHT22;499;42.648;23.270;2023-04-24T07:02:03;12.70;25.10
1021;DHT22;499;42.648;23.270;2023-04-24T07:04:30;12.70;25.10
1021;DHT22;499;42.648;23.270;2023-04-24T07:06:59;12.70;25.10
1021;DHT22;499;42.648;23.270;2023-04-24T07:09:26;12.90;25.70
1021;DHT22;499;42.648;23.270;2023-04-24T07:11:54;13.10;25.40
1021;DHT22;499;42.648;23.270;2023-04-24T07:14:23;13.20;25.40
1021;DHT22;499;42.648;23.270;2023-04-24T07:16:50;13.40;24.20
1021;DHT22;499;42.648;23.270;2023-04-24T07:19:18;13.30;24.30
1021;DHT22;499;42.648;23.270;2023-04-24T07:21:48;13.60;24.60
1021;DHT22;499;42.648;23.270;2023-04-24T07:24:16;13.70;23.10
1021;DHT22;499;42.648;23.270;2023-04-24T07:26:43;13.70;21.90
1021;DHT22;499;42.648;23.270;2023-04-24T07:29:12;13.70;21.90
1021;DHT22;499;42.648;23.270;2023-04-24T07:31:40;13.60;22.10
1021;DHT22;499;42.648;23.270;2023-04-24T07:34:07;13.70;24.00
1021;DHT22;499;42.648;23.270;2023-04-24T07:36:34;13.90;23.70
1021;DHT22;499;42.648;23.270;2023-04-24T07:39:01;14.00;22.10
1021;DHT22;499;42.648;23.270;2023-04-24T07:41:30;14.20;23.00
1021;DHT22;499;42.648;23.270;2023-04-24T07:43:57;14.20;21.60
1021;DHT22;499;42.648;23.270;2023-04-24T07:46:24;14.30;22.30
1021;DHT22;499;42.648;23.270;2023-04-24T07:48:55;14.30;22.30
1021;DHT22;499;42.648;23.270;2023-04-24T07:51:24;14.40;22.40
1021;DHT22;499;42.648;23.270;2023-04-24T07:53:52;14.30;21.30
1021;DHT22;499;42.648;23.270;2023-04-24T07:56:20;14.20;21.90
1021;DHT22;499;42.648;23.270;2023-04-24T07:58:48;14.20;22.20
1021;DHT22;499;42.648;23.270;2023-04-24T08:01:15;14.20;22.20
1021;DHT22;499;42.648;23.270;2023-04-24T08:03:43;14.30;21.00
1021;DHT22;499;42.648;23.270;2023-04-24T08:06:10;14.40;21.50
1021;DHT22;499;42.648;23.270;2023-04-24T08:08:39;14.40;21.30
1021;DHT22;499;42.648;23.270;2023-04-24T08:11:06;14.60;21.30
1021;DHT22;499;42.648;23.270;2023-04-24T08:13:33;14.70;22.10
1021;DHT22;499;42.648;23.270;2023-04-24T08:16:02;14.80;21.50
1021;DHT22;499;42.648;23.270;2023-04-24T08:18:29;14.80;21.30
1021;DHT22;499;42.648;23.270;2023-04-24T08:20:56;14.70;20.40
1021;DHT22;499;42.648;23.270;2023-04-24T08:23:27;14.70;20.20
1021;DHT22;499;42.648;23.270;2023-04-24T08:25:54;14.60;20.10
1021;DHT22;499;42.648;23.270;2023-04-24T08:28:22;14.50;20.40
1021;DHT22;499;42.648;23.270;2023-04-24T08:30:49;14.60;20.20
1021;DHT22;499;42.648;23.270;2023-04-24T08:33:21;14.80;20.20
1021;DHT22;499;42.648;23.270;2023-04-24T08:35:48;15.00;21.00
1021;DHT22;499;42.648;23.270;2023-04-24T08:38:15;15.30;20.50
1021;DHT22;499;42.648;23.270;2023-04-24T08:40:43;15.30;18.60
1021;DHT22;499;42.648;23.270;2023-04-24T08:43:12;15.50;20.00
1021;DHT22;499;42.648;23.270;2023-04-24T08:45:40;15.70;18.60
1021;DHT22;499;42.648;23.270;2023-04-24T08:48:07;15.70;18.80
1021;DHT22;499;42.648;23.270;2023-04-24T08:50:37;15.80;19.90
1021;DHT22;499;42.648;23.270;2023-04-24T08:53:07;15.80;19.40
1021;DHT22;499;42.648;23.270;2023-04-24T08:55:35;16.00;19.50
1021;DHT22;499;42.648;23.270;2023-04-24T08:58:02;16.00;17.40
1021;DHT22;499;42.648;23.270;2023-04-24T09:00:29;16.00;19.20
1021;DHT22;499;42.648;23.270;2023-04-24T09:03:00;16.20;18.20
1021;DHT22;499;42.648;23.270;2023-04-24T09:05:28;16.20;16.40
1021;DHT22;499;42.648;23.270;2023-04-24T09:07:57;16.20;18.30
1021;DHT22;499;42.648;23.270;2023-04-24T09:10:26;16.40;18.20
1021;DHT22;499;42.648;23.270;2023-04-24T09:12:56;16.70;18.40
1021;DHT22;499;42.648;23.270;2023-04-24T09:15:27;16.80;16.60
1021;DHT22;499;42.648;23.270;2023-04-24T09:17:54;16.70;17.20
1021;DHT22;499;42.648;23.270;2023-04-24T09:20:22;16.80;16.30
1021;DHT22;499;42.648;23.270;2023-04-24T09:22:53;17.00;16.20
1021;DHT22;499;42.648;23.270;2023-04-24T09:25:25;17.10;16.20
1021;DHT22;499;42.648;23.270;2023-04-24T09:28:00;17.20;16.10
1021;DHT22;499;42.648;23.270;2023-04-24T09:30:28;17.20;16.90
1021;DHT22;499;42.648;23.270;2023-04-24T09:33:13;17.30;16.40
1021;DHT22;499;42.648;23.270;2023-04-24T09:35:41;17.30;16.40
1021;DHT22;499;42.648;23.270;2023-04-24T09:38:09;17.40;16.40
1021;DHT22;499;42.648;23.270;2023-04-24T09:40:38;17.40;15.90
1021;DHT22;499;42.648;23.270;2023-04-24T09:43:10;17.30;16.40
1021;DHT22;499;42.648;23.270;2023-04-24T09:45:39;17.20;16.30
1021;DHT22;499;42.648;23.270;2023-04-24T09:48:09;17.30;16.40
1021;DHT22;499;42.648;23.270;2023-04-24T09:50:36;17.40;15.90
1021;DHT22;499;42.648;23.270;2023-04-24T09:53:05;17.40;16.40
1021;DHT22;499;42.648;23.270;2023-04-24T09:55:42;17.50;16.50
1021;DHT22;499;42.648;23.270;2023-04-24T09:58:11;17.60;15.00
1021;DHT22;499;42.648;23.270;2023-04-24T10:00:47;17.70;16.70
1021;DHT22;499;42.648;23.270;2023-04-24T10:03:25;18.00;16.20
1021;DHT22;499;42.648;23.270;2023-04-24T10:06:16;18.20;15.70
1021;DHT22;499;42.648;23.270;2023-04-24T10:08:45;18.20;15.30
1021;DHT22;499;42.648;23.270;2023-04-24T10:11:14;18.30;14.50
1021;DHT22;499;42.648;23.270;2023-04-24T10:13:41;18.50;13.90
1021;DHT22;499;42.648;23.270;2023-04-24T10:16:09;18.50;14.60
1021;DHT22;499;42.648;23.270;2023-04-24T10:18:39;18.40;11.50
1021;DHT22;499;42.648;23.270;2023-04-24T10:21:07;18.40;12.80
1021;DHT22;499;42.648;23.270;2023-04-24T10:23:35;18.50;13.70
1021;DHT22;499;42.648;23.270;2023-04-24T10:26:03;18.70;14.00
1021;DHT22;499;42.648;23.270;2023-04-24T10:28:32;18.90;12.60
1021;DHT22;499;42.648;23.270;2023-04-24T10:31:01;19.10;12.30
1021;DHT22;499;42.648;23.270;2023-04-24T10:33:29;19.10;10.60
1021;DHT22;499;42.648;23.270;2023-04-24T10:35:57;18.90;10.60
1021;DHT22;499;42.648;23.270;2023-04-24T10:38:26;18.90;11.20
1021;DHT22;499;42.648;23.270;2023-04-24T10:41:06;19.00;10.30
1021;DHT22;499;42.648;23.270;2023-04-24T10:43:36;18.90;10.50
1021;DHT22;499;42.648;23.270;2023-04-24T10:46:05;19.20;10.90
1021;DHT22;499;42.648;23.270;2023-04-24T10:48:33;19.30;11.80
1021;DHT22;499;42.648;23.270;2023-04-24T10:51:01;19.30;10.80
1021;DHT22;499;42.648;23.270;2023-04-24T10:53:29;19.40;10.80
1021;DHT22;499;42.648;23.270;2023-04-24T10:56:03;19.60;12.40
1021;DHT22;499;42.648;23.270;2023-04-24T10:58:40;19.90;9.60
1021;DHT22;499;42.648;23.270;2023-04-24T11:01:23;20.10;10.10
1021;DHT22;499;42.648;23.270;2023-04-24T11:03:54;20.20;7.90
1021;DHT22;499;42.648;23.270;2023-04-24T11:06:29;20.00;7.40
1021;DHT22;499;42.648;23.270;2023-04-24T11:09:02;19.60;8.40
1021;DHT22;499;42.648;23.270;2023-04-24T11:11:31;19.50;7.50
1021;DHT22;499;42.648;23.270;2023-04-24T11:14:06;19.50;8.50
1021;DHT22;499;42.648;23.270;2023-04-24T11:16:35;19.20;7.90
1021;DHT22;499;42.648;23.270;2023-04-24T11:19:05;19.20;8.80
1021;DHT22;499;42.648;23.270;2023-04-24T11:21:39;18.50;11.90
1021;DHT22;499;42.648;23.270;2023-04-24T11:24:30;17.60;16.60
1021;DHT22;499;42.648;23.270;2023-04-24T11:26:59;16.70;16.00
1021;DHT22;499;42.648;23.270;2023-04-24T11:29:41;16.50;15.80
1021;DHT22;499;42.648;23.270;2023-04-24T11:32:24;16.70;18.60
1021;DHT22;499;42.648;23.270;2023-04-24T11:34:52;16.60;22.10
1021;DHT22;499;42.648;23.270;2023-04-24T11:37:20;16.50;23.80
1021;DHT22;499;42.648;23.270;2023-04-24T11:39:48;16.30;26.50
1021;DHT22;499;42.648;23.270;2023-04-24T11:42:16;16.30;31.60
1021;DHT22;499;42.648;23.270;2023-04-24T11:44:46;16.30;36.20
1021;DHT22;499;42.648;23.270;2023-04-24T11:47:14;16.10;41.10
1021;DHT22;499;42.648;23.270;2023-04-24T11:49:41;15.70;47.00
1021;DHT22;499;42.648;23.270;2023-04-24T11:52:08;15.80;54.60
1021;DHT22;499;42.648;23.270;2023-04-24T11:54:36;16.00;35.30
1021;DHT22;499;42.648;23.270;2023-04-24T11:57:04;16.20;34.30
1021;DHT22;499;42.648;23.270;2023-04-24T11:59:35;16.50;31.80
1021;DHT22;499;42.648;23.270;2023-04-24T12:02:04;16.50;26.50
1021;DHT22;499;42.648;23.270;2023-04-24T12:04:39;16.70;25.00
1021;DHT22;499;42.648;23.270;2023-04-24T12:07:07;17.30;25.50
1021;DHT22;499;42.648;23.270;2023-04-24T12:09:41;17.70;21.70
1021;DHT22;499;42.648;23.270;2023-04-24T12:12:10;17.70;22.30
1021;DHT22;499;42.648;23.270;2023-04-24T12:14:45;17.60;18.70
1021;DHT22;499;42.648;23.270;2023-04-24T12:17:15;18.00;20.00
1021;DHT22;499;42.648;23.270;2023-04-24T12:19:47;18.40;18.50
1021;DHT22;499;42.648;23.270;2023-04-24T12:22:14;18.40;17.10
1021;DHT22;499;42.648;23.270;2023-04-24T12:24:58;18.30;17.00
1021;DHT22;499;42.648;23.270;2023-04-24T12:27:26;18.60;17.20
1021;DHT22;499;42.648;23.270;2023-04-24T12:29:55;18.90;17.50
1021;DHT22;499;42.648;23.270;2023-04-24T12:32:25;19.10;15.60
1021;DHT22;499;42.648;23.270;2023-04-24T12:34:52;19.20;13.70
1021;DHT22;499;42.648;23.270;2023-04-24T12:37:20;19.50;14.60
1021;DHT22;499;42.648;23.270;2023-04-24T12:40:06;19.50;13.80
1021;DHT22;499;42.648;23.270;2023-04-24T12:42:34;19.90;13.20
1021;DHT22;499;42.648;23.270;2023-04-24T12:45:04;20.00;11.60
1021;DHT22;499;42.648;23.270;2023-04-24T12:47:33;20.10;10.80
1021;DHT22;499;42.648;23.270;2023-04-24T12:50:01;20.30;12.40
1021;DHT22;499;42.648;23.270;2023-04-24T12:52:29;20.30;10.20
1021;DHT22;499;42.648;23.270;2023-04-24T12:54:57;20.10;10.80
1021;DHT22;499;42.648;23.270;2023-04-24T12:57:25;19.90;11.80
1021;DHT22;499;42.648;23.270;2023-04-24T12:59:54;19.70;11.90
1021;DHT22;499;42.648;23.270;2023-04-24T13:02:22;19.60;11.60
1021;DHT22;499;42.648;23.270;2023-04-24T13:04:51;19.40;11.50
1021;DHT22;499;42.648;23.270;2023-04-24T13:07:18;19.50;10.80
1021;DHT22;499;42.648;23.270;2023-04-24T13:09:47;19.70;12.10
1021;DHT22;499;42.648;23.270;2023-04-24T13:12:14;19.90;11.50
1021;DHT22;499;42.648;23.270;2023-04-24T13:14:41;19.90;10.40
1021;DHT22;499;42.648;23.270;2023-04-24T13:17:08;20.20;12.20
1021;DHT22;499;42.648;23.270;2023-04-24T13:19:38;20.10;10.10
1021;DHT22;499;42.648;23.270;2023-04-24T13:22:08;20.20;10.10
1021;DHT22;499;42.648;23.270;2023-04-24T13:24:35;20.20;10.10
1021;DHT22;499;42.648;23.270;2023-04-24T13:27:03;20.20;10.30
1021;DHT22;499;42.648;23.270;2023-04-24T13:29:30;20.10;10.10
1021;DHT22;499;42.648;23.270;2023-04-24T13:31:57;20.20;11.00
1021;DHT22;499;42.648;23.270;2023-04-24T13:34:25;20.20;10.10
1021;DHT22;499;42.648;23.270;2023-04-24T13:36:54;20.40;10.30
1021;DHT22;499;42.648;23.270;2023-04-24T13:39:23;20.00;10.60
1021;DHT22;499;42.648;23.270;2023-04-24T13:41:50;19.90;9.90
1021;DHT22;499;42.648;23.270;2023-04-24T13:44:18;19.90;9.90
1021;DHT22;499;42.648;23.270;2023-04-24T13:46:48;19.90;9.90
1021;DHT22;499;42.648;23.270;2023-04-24T13:49:17;20.00;10.00
1021;DHT22;499;42.648;23.270;2023-04-24T13:51:44;19.90;9.90
1021;DHT22;499;42.648;23.270;2023-04-24T13:54:12;19.90;9.50
1021;DHT22;499;42.648;23.270;2023-04-24T13:56:40;19.70;9.80
1021;DHT22;499;42.648;23.270;2023-04-24T13:59:08;19.60;9.80
1021;DHT22;499;42.648;23.270;2023-04-24T14:01:35;19.70;10.20
1021;DHT22;499;42.648;23.270;2023-04-24T14:04:02;19.80;9.90
1021;DHT22;499;42.648;23.270;2023-04-24T14:06:29;19.90;9.90
1021;DHT22;499;42.648;23.270;2023-04-24T14:08:57;19.90;8.10
1021;DHT22;499;42.648;23.270;2023-04-24T14:11:26;20.10;9.20
1021;DHT22;499;42.648;23.270;2023-04-24T14:13:55;20.30;9.80
1021;DHT22;499;42.648;23.270;2023-04-24T14:16:22;20.40;8.80
1021;DHT22;499;42.648;23.270;2023-04-24T14:18:50;20.30;8.90
1021;DHT22;499;42.648;23.270;2023-04-24T14:21:17;20.40;8.50
1021;DHT22;499;42.648;23.270;2023-04-24T14:23:44;20.30;7.90
1021;DHT22;499;42.648;23.270;2023-04-24T14:26:11;20.30;7.90
1021;DHT22;499;42.648;23.270;2023-04-24T14:28:38;19.90;7.80
1021;DHT22;499;42.648;23.270;2023-04-24T14:31:06;19.90;8.40
1021;DHT22;499;42.648;23.270;2023-04-24T14:33:34;19.70;8.10
1021;DHT22;499;42.648;23.270;2023-04-24T14:36:01;19.70;8.60
1021;DHT22;499;42.648;23.270;2023-04-24T14:38:31;19.80;8.80
1021;DHT22;499;42.648;23.270;2023-04-24T14:40:58;19.80;8.30
1021;DHT22;499;42.648;23.270;2023-04-24T14:43:25;19.80;9.90
1021;DHT22;499;42.648;23.270;2023-04-24T14:45:52;19.40;11.90
1021;DHT22;499;42.648;23.270;2023-04-24T14:48:21;19.00;12.70
1021;DHT22;499;42.648;23.270;2023-04-24T14:50:48;18.90;12.50
1021;DHT22;499;42.648;23.270;2023-04-24T14:53:15;18.70;13.10
1021;DHT22;499;42.648;23.270;2023-04-24T14:55:42;18.70;15.60
1021;DHT22;499;42.648;23.270;2023-04-24T14:58:09;18.50;14.40
1021;DHT22;499;42.648;23.270;2023-04-24T15:00:36;18.20;14.90
1021;DHT22;499;42.648;23.270;2023-04-24T15:03:04;18.10;16.60
1021;DHT22;499;42.648;23.270;2023-04-24T15:05:32;18.00;15.70
1021;DHT22;499;42.648;23.270;2023-04-24T15:07:59;18.10;15.10
1021;DHT22;499;42.648;23.270;2023-04-24T15:10:26;18.00;15.20
1021;DHT22;499;42.648;23.270;2023-04-24T15:12:54;17.90;16.80
1021;DHT22;499;42.648;23.270;2023-04-24T15:15:22;17.90;16.80
1021;DHT22;499;42.648;23.270;2023-04-24T15:17:49;17.90;16.80
1021;DHT22;499;42.648;23.270;2023-04-24T15:20:16;17.80;16.70
1021;DHT22;499;42.648;23.270;2023-04-24T15:22:44;17.70;17.60
1021;DHT22;499;42.648;23.270;2023-04-24T15:25:11;17.80;17.10
1021;DHT22;499;42.648;23.270;2023-04-24T15:27:40;17.70;16.60
1021;DHT22;499;42.648;23.270;2023-04-24T15:30:08;17.80;16.70
1021;DHT22;499;42.648;23.270;2023-04-24T15:32:36;17.90;16.80
1021;DHT22;499;42.648;23.270;2023-04-24T15:35:03;17.80;16.90
1021;DHT22;499;42.648;23.270;2023-04-24T15:37:31;17.80;16.70
1021;DHT22;499;42.648;23.270;2023-04-24T15:39:59;17.70;16.70
1021;DHT22;499;42.648;23.270;2023-04-24T15:42:29;17.70;15.50
1021;DHT22;499;42.648;23.270;2023-04-24T15:44:56;17.60;16.60
1021;DHT22;499;42.648;23.270;2023-04-24T15:47:24;17.50;16.50
1021;DHT22;499;42.648;23.270;2023-04-24T15:49:51;17.40;16.40
1021;DHT22;499;42.648;23.270;2023-04-24T15:52:18;17.20;16.30
1021;DHT22;499;42.648;23.270;2023-04-24T15:54:46;17.20;17.70
1021;DHT22;499;42.648;23.270;2023-04-24T15:57:14;17.10;18.00
1021;DHT22;499;42.648;23.270;2023-04-24T15:59:41;17.00;18.50
1021;DHT22;499;42.648;23.270;2023-04-24T16:02:10;17.10;18.60
1021;DHT22;499;42.648;23.270;2023-04-24T16:04:43;16.90;19.30
1021;DHT22;499;42.648;23.270;2023-04-24T16:07:11;16.60;19.70
1021;DHT22;499;42.648;23.270;2023-04-24T16:09:38;16.50;19.80
1021;DHT22;499;42.648;23.270;2023-04-24T16:12:05;16.50;22.30
1021;DHT22;499;42.648;23.270;2023-04-24T16:14:35;15.70;28.10